createdAt,value
2023-05-22T00:01:21.985Z,2.75
2023-05-22T00:03:48.020Z,3.38
2023-05-22T00:06:14.339Z,2.70
2023-05-22T00:08:40.122Z,2.75
2023-05-22T00:11:05.972Z,3.40
2023-05-22T00:13:31.741Z,2.75
2023-05-22T00:15:57.506Z,3.22
2023-05-22T00:18:23.357Z,2.50
2023-05-22T00:20:49.676Z,2.75
2023-05-22T00:23:16.605Z,2.92
2023-05-22T00:25:42.438Z,2.72
2023-05-22T00:28:08.478Z,2.70
2023-05-22T00:30:34.644Z,2.72
2023-05-22T00:33:00.525Z,2.83
2023-05-22T00:35:26.374Z,3.05
2023-05-22T00:37:52.158Z,2.47
2023-05-22T00:40:18.068Z,3.10
2023-05-22T00:42:43.903Z,2.70
2023-05-22T00:45:13.279Z,2.28
2023-05-22T00:47:39.431Z,2.30
2023-05-22T00:50:05.897Z,2.85
2023-05-22T00:52:32.320Z,2.30
2023-05-22T00:54:58.433Z,3.10
2023-05-22T00:57:24.316Z,2.97
2023-05-22T00:59:50.260Z,3.00
2023-05-22T01:02:16.154Z,2.78
2023-05-22T01:04:44.956Z,2.95
2023-05-22T01:07:10.749Z,2.92
2023-05-22T01:09:36.528Z,2.67
2023-05-22T01:12:11.431Z,2.78
2023-05-22T01:14:46.547Z,2.40
2023-05-22T01:17:22.923Z,3.10
2023-05-22T01:20:09.463Z,2.97
2023-05-22T01:22:57.640Z,2.92
2023-05-22T01:25:42.143Z,3.33
2023-05-22T01:28:22.914Z,2.33
2023-05-22T01:31:08.458Z,3.50
2023-05-22T01:33:52.577Z,3.70
2023-05-22T01:36:21.754Z,2.95
2023-05-22T01:38:48.256Z,3.05
2023-05-22T01:41:15.292Z,3.08
2023-05-22T01:43:41.262Z,2.90
2023-05-22T01:46:07.543Z,3.03
2023-05-22T01:48:33.703Z,3.03
2023-05-22T01:51:03.135Z,2.92
2023-05-22T01:53:34.900Z,2.85
2023-05-22T01:56:07.118Z,2.97
2023-05-22T01:58:39.820Z,2.90
2023-05-22T02:01:06.720Z,3.05
2023-05-22T02:03:34.072Z,2.67
2023-05-22T02:06:03.475Z,3.13
2023-05-22T02:08:30.021Z,3.00
2023-05-22T02:10:56.126Z,2.70
2023-05-22T02:13:22.697Z,2.60
2023-05-22T02:15:49.306Z,2.88
2023-05-22T02:18:15.696Z,2.78
2023-05-22T02:20:41.667Z,2.50
2023-05-22T02:23:07.487Z,2.60
2023-05-22T02:25:33.262Z,2.85
2023-05-22T02:27:59.092Z,2.67
2023-05-22T02:30:24.947Z,2.85
2023-05-22T02:32:50.830Z,3.42
2023-05-22T02:35:16.693Z,3.10
2023-05-22T02:37:42.540Z,2.40
2023-05-22T02:40:09.400Z,2.90
2023-05-22T02:42:35.324Z,2.95
2023-05-22T02:45:01.352Z,3.30
2023-05-22T02:47:27.160Z,2.80
2023-05-22T02:49:53.074Z,2.85
2023-05-22T02:52:18.929Z,2.88
2023-05-22T02:54:44.682Z,2.92
2023-05-22T02:57:10.486Z,2.97
2023-05-22T02:59:36.855Z,2.70
2023-05-22T03:02:02.955Z,2.65
2023-05-22T03:04:29.186Z,3.28
2023-05-22T03:06:55.314Z,3.60
2023-05-22T03:09:21.188Z,2.95
2023-05-22T03:11:47.075Z,2.78
2023-05-22T03:14:12.864Z,2.72
2023-05-22T03:16:38.700Z,3.13
2023-05-22T03:19:08.633Z,2.75
2023-05-22T03:21:34.468Z,3.47
2023-05-22T03:24:00.414Z,3.55
2023-05-22T03:26:27.776Z,2.97
2023-05-22T03:28:54.178Z,3.58
2023-05-22T03:31:19.976Z,3.30
2023-05-22T03:33:45.843Z,2.80
2023-05-22T03:36:11.630Z,3.13
2023-05-22T03:38:37.408Z,3.33
2023-05-22T03:41:03.207Z,3.40
2023-05-22T03:43:29.040Z,3.38
2023-05-22T03:45:54.853Z,3.53
2023-05-22T03:48:20.696Z,2.88
2023-05-22T03:50:46.606Z,2.63
2023-05-22T03:53:12.358Z,3.00
2023-05-22T03:55:38.116Z,3.40
2023-05-22T03:58:03.882Z,3.45
2023-05-22T04:00:31.102Z,3.15
2023-05-22T04:02:58.008Z,2.88
2023-05-22T04:05:24.077Z,2.85
2023-05-22T04:07:49.927Z,3.45
2023-05-22T04:10:15.905Z,3.05
2023-05-22T04:12:44.819Z,2.63
2023-05-22T04:15:10.877Z,3.05
2023-05-22T04:17:39.022Z,2.97
2023-05-22T04:20:05.860Z,2.88
2023-05-22T04:22:32.560Z,2.65
2023-05-22T04:24:58.494Z,3.53
2023-05-22T04:27:24.472Z,2.60
2023-05-22T04:29:50.564Z,2.35
2023-05-22T04:32:21.162Z,2.40
2023-05-22T04:37:14.528Z,3.42
2023-05-22T04:39:40.548Z,2.60
2023-05-22T04:42:06.574Z,2.58
2023-05-22T04:44:33.744Z,2.75
2023-05-22T04:47:00.586Z,2.47
2023-05-22T04:49:27.811Z,3.53
2023-05-22T04:51:54.819Z,2.28
2023-05-22T04:54:20.572Z,3.15
2023-05-22T04:56:46.885Z,2.50
2023-05-22T04:59:16.138Z,3.65
2023-05-22T05:01:47.584Z,2.72
2023-05-22T05:04:13.813Z,2.70
2023-05-22T05:06:39.611Z,2.60
2023-05-22T05:09:06.540Z,2.40
2023-05-22T05:11:32.463Z,2.28
2023-05-22T05:14:11.689Z,3.47
2023-05-22T05:16:37.835Z,2.55
2023-05-22T05:19:04.019Z,3.03
2023-05-22T05:21:31.125Z,2.80
2023-05-22T05:23:57.210Z,3.33
2023-05-22T05:26:23.575Z,2.78
2023-05-22T05:28:50.242Z,2.60
2023-05-22T05:31:17.724Z,2.63
2023-05-22T05:33:43.737Z,3.45
2023-05-22T05:36:09.632Z,3.03
2023-05-22T05:38:36.070Z,3.10
2023-05-22T05:41:02.294Z,2.60
2023-05-22T05:43:33.352Z,2.67
2023-05-22T05:45:59.995Z,2.72
2023-05-22T05:48:26.082Z,3.25
2023-05-22T05:50:52.191Z,3.75
2023-05-22T05:53:18.419Z,2.60
2023-05-22T05:55:44.495Z,3.28
2023-05-22T05:58:10.916Z,3.47
2023-05-22T06:00:38.621Z,3.45
2023-05-22T06:03:06.004Z,3.03
2023-05-22T06:05:32.264Z,2.75
2023-05-22T06:07:58.668Z,2.75
2023-05-22T06:10:25.510Z,3.10
2023-05-22T06:13:03.966Z,3.33
2023-05-22T06:15:31.052Z,3.20
2023-05-22T06:17:57.313Z,3.25
2023-05-22T06:20:24.844Z,2.95
2023-05-22T06:22:51.401Z,2.95
2023-05-22T06:25:17.455Z,3.08
2023-05-22T06:27:43.459Z,2.70
2023-05-22T06:30:09.896Z,3.28
2023-05-22T06:32:36.262Z,3.35
2023-05-22T06:35:02.875Z,2.67
2023-05-22T06:37:30.782Z,3.72
2023-05-22T06:39:56.726Z,3.33
2023-05-22T06:42:22.613Z,2.95
2023-05-22T06:44:48.482Z,2.60
2023-05-22T06:47:14.646Z,3.33
2023-05-22T06:49:40.900Z,3.20
2023-05-22T06:52:06.927Z,2.88
2023-05-22T06:54:33.027Z,3.25
2023-05-22T06:56:59.040Z,3.08
2023-05-22T06:59:24.960Z,2.83
2023-05-22T07:01:50.930Z,3.10
2023-05-22T07:04:17.028Z,3.05
2023-05-22T07:06:42.947Z,3.05
2023-05-22T07:09:10.609Z,3.33
2023-05-22T07:11:36.925Z,2.85
2023-05-22T07:14:02.880Z,3.45
2023-05-22T07:16:30.544Z,3.70
2023-05-22T07:18:56.859Z,3.50
2023-05-22T07:21:25.580Z,3.65
2023-05-22T07:23:51.772Z,3.97
2023-05-22T07:26:17.990Z,3.65
2023-05-22T07:28:43.838Z,3.58
2023-05-22T07:31:10.283Z,3.58
2023-05-22T07:33:36.192Z,3.83
2023-05-22T07:36:02.194Z,3.63
2023-05-22T07:38:28.279Z,3.72
2023-05-22T07:40:54.444Z,3.60
2023-05-22T07:43:42.898Z,3.17
2023-05-22T07:46:10.262Z,3.63
2023-05-22T07:48:36.468Z,3.72
2023-05-22T07:51:03.442Z,3.38
2023-05-22T07:53:29.702Z,3.75
2023-05-22T07:55:56.034Z,3.53
2023-05-22T07:58:23.666Z,2.75
2023-05-22T08:00:49.584Z,3.58
2023-05-22T08:03:17.719Z,3.20
2023-05-22T08:05:44.051Z,3.92
2023-05-22T08:08:10.032Z,3.10
2023-05-22T08:10:47.191Z,2.78
2023-05-22T08:13:38.161Z,3.10
2023-05-22T08:16:04.161Z,3.28
2023-05-22T08:18:30.542Z,3.55
2023-05-22T08:20:56.755Z,3.67
2023-05-22T08:23:22.674Z,3.33
2023-05-22T08:25:49.596Z,3.17
2023-05-22T08:28:15.488Z,2.95
2023-05-22T08:30:41.557Z,3.30
2023-05-22T08:33:07.723Z,3.35
2023-05-22T08:35:33.710Z,3.35
2023-05-22T08:37:59.580Z,3.28
2023-05-22T08:40:30.935Z,2.80
2023-05-22T08:42:57.321Z,3.63
2023-05-22T08:45:25.362Z,3.80
2023-05-22T08:47:52.777Z,2.78
2023-05-22T08:50:20.509Z,3.40
2023-05-22T08:52:56.615Z,3.67
2023-05-22T08:55:22.840Z,3.47
2023-05-22T08:57:49.209Z,3.13
2023-05-22T09:00:15.701Z,3.20
2023-05-22T09:02:41.937Z,2.97
2023-05-22T09:05:08.789Z,3.33
2023-05-22T09:07:35.211Z,3.28
2023-05-22T09:10:04.786Z,3.15
2023-05-22T09:12:31.864Z,3.43
2023-05-22T09:15:02.974Z,2.80
2023-05-22T09:17:28.952Z,2.72
2023-05-22T09:19:59.056Z,3.35
2023-05-22T09:22:34.480Z,2.60
2023-05-22T09:25:00.390Z,2.95
2023-05-22T09:27:26.788Z,2.55
2023-05-22T09:29:56.238Z,3.17
2023-05-22T09:32:22.766Z,2.40
2023-05-22T09:34:49.234Z,2.97
2023-05-22T09:37:18.008Z,2.80
2023-05-22T09:39:46.298Z,3.42
2023-05-22T09:42:14.543Z,2.38
2023-05-22T09:44:50.735Z,2.85
2023-05-22T09:47:17.005Z,2.53
2023-05-22T09:49:43.451Z,2.38
2023-05-22T09:52:11.941Z,2.83
2023-05-22T09:54:44.892Z,2.92
2023-05-22T09:57:13.610Z,2.58
2023-05-22T09:59:40.473Z,2.92
2023-05-22T10:02:06.427Z,2.50
2023-05-22T10:04:32.789Z,2.50
2023-05-22T10:07:01.751Z,2.13
2023-05-22T10:09:33.988Z,2.55
2023-05-22T10:12:03.726Z,1.80
2023-05-22T10:14:30.927Z,2.80
2023-05-22T10:17:01.424Z,2.33
2023-05-22T10:21:56.063Z,2.08
2023-05-22T10:24:22.972Z,2.50
2023-05-22T10:26:49.834Z,2.58
2023-05-22T10:29:20.164Z,2.58
2023-05-22T10:34:15.177Z,2.08
2023-05-22T10:36:41.241Z,1.85
2023-05-22T10:39:21.508Z,2.53
2023-05-22T10:41:47.511Z,2.20
2023-05-22T10:44:22.662Z,2.35
2023-05-22T10:46:49.739Z,2.22
2023-05-22T10:49:25.817Z,2.20
2023-05-22T10:52:00.136Z,2.05
2023-05-22T10:54:45.289Z,2.35
2023-05-22T10:57:18.430Z,2.03
2023-05-22T10:59:46.962Z,2.33
2023-05-22T11:02:29.379Z,2.58
2023-05-22T11:05:10.935Z,2.30
2023-05-22T11:07:40.066Z,2.63
2023-05-22T11:10:06.247Z,2.20
2023-05-22T11:13:00.232Z,2.10
2023-05-22T11:15:32.129Z,2.20
2023-05-22T11:18:01.750Z,2.03
2023-05-22T11:20:30.618Z,2.80
2023-05-22T11:22:58.801Z,2.70
2023-05-22T11:25:25.912Z,2.30
2023-05-22T11:27:52.520Z,2.28
2023-05-22T11:30:18.576Z,2.47
2023-05-22T11:32:45.408Z,1.88
2023-05-22T11:35:15.047Z,1.95
2023-05-22T11:37:41.929Z,2.05
2023-05-22T11:40:08.626Z,3.08
2023-05-22T11:43:04.219Z,1.90
2023-05-22T11:45:30.472Z,2.25
2023-05-22T11:47:57.391Z,2.00
2023-05-22T11:50:41.152Z,2.33
2023-05-22T11:53:08.668Z,2.65
2023-05-22T11:55:35.529Z,2.38
2023-05-22T11:58:02.106Z,2.15
2023-05-22T12:00:28.880Z,2.20
2023-05-22T12:02:55.102Z,2.08
2023-05-22T12:05:22.021Z,2.20
2023-05-22T12:07:48.217Z,2.50
2023-05-22T12:10:14.863Z,2.08
2023-05-22T12:12:41.934Z,2.08
2023-05-22T12:15:08.073Z,2.30
2023-05-22T12:17:35.726Z,2.30
2023-05-22T12:20:01.678Z,2.42
2023-05-22T12:22:29.328Z,2.78
2023-05-22T12:24:55.444Z,2.13
2023-05-22T12:27:21.578Z,2.50
2023-05-22T12:29:47.571Z,2.05
2023-05-22T12:32:14.049Z,2.20
2023-05-22T12:34:47.045Z,2.83
2023-05-22T12:37:20.041Z,2.67
2023-05-22T12:39:56.087Z,2.17
2023-05-22T12:42:22.087Z,2.15
2023-05-22T12:44:48.138Z,2.80
2023-05-22T12:47:14.109Z,1.95
2023-05-22T12:49:40.245Z,2.35
2023-05-22T12:52:06.748Z,2.35
2023-05-22T12:54:32.994Z,1.90
2023-05-22T12:56:58.925Z,2.58
2023-05-22T12:59:36.794Z,2.22
2023-05-22T13:02:04.971Z,2.33
2023-05-22T13:04:31.373Z,2.70
2023-05-22T13:07:01.328Z,2.40
2023-05-22T13:09:27.328Z,2.17
2023-05-22T13:11:53.681Z,2.53
2023-05-22T13:14:27.494Z,2.00
2023-05-22T13:16:53.492Z,2.50
2023-05-22T13:19:19.690Z,2.17
2023-05-22T13:21:45.682Z,1.40
2023-05-22T13:24:11.728Z,2.55
2023-05-22T13:26:38.240Z,2.05
2023-05-22T13:29:04.921Z,2.00
2023-05-22T13:31:37.332Z,2.33
2023-05-22T13:34:04.126Z,1.95
2023-05-22T13:36:30.422Z,2.80
2023-05-22T13:38:57.116Z,2.45
2023-05-22T13:41:24.048Z,2.28
2023-05-22T13:43:50.285Z,1.60
2023-05-22T13:46:17.774Z,2.60
2023-05-22T13:48:43.858Z,2.72
2023-05-22T13:51:10.042Z,2.10
2023-05-22T13:53:38.087Z,2.20
2023-05-22T13:56:04.062Z,2.28
2023-05-22T13:58:30.116Z,2.08
2023-05-22T14:00:56.176Z,1.85
2023-05-22T14:03:22.339Z,1.90
2023-05-22T14:05:48.390Z,2.38
2023-05-22T14:08:14.498Z,2.83
2023-05-22T14:10:41.649Z,2.08
2023-05-22T14:13:32.358Z,1.52
2023-05-22T14:15:58.470Z,1.90
2023-05-22T14:18:24.833Z,2.38
2023-05-22T14:20:51.056Z,2.58
2023-05-22T14:23:17.755Z,1.95
2023-05-22T14:25:44.395Z,1.90
2023-05-22T14:28:10.944Z,2.08
2023-05-22T14:30:37.232Z,2.17
2023-05-22T14:33:03.400Z,2.30
2023-05-22T14:35:29.467Z,2.05
2023-05-22T14:37:55.498Z,2.20
2023-05-22T14:40:21.608Z,1.70
2023-05-22T14:42:56.978Z,1.80
2023-05-22T14:45:23.218Z,1.85
2023-05-22T14:47:49.275Z,2.45
2023-05-22T14:50:22.723Z,2.50
2023-05-22T14:52:49.243Z,2.05
2023-05-22T14:55:16.151Z,2.10
2023-05-22T14:57:42.106Z,1.98
2023-05-22T15:00:09.348Z,1.85
2023-05-22T15:02:35.696Z,2.15
2023-05-22T15:05:02.015Z,2.03
2023-05-22T15:07:35.949Z,2.25
2023-05-22T15:10:09.201Z,2.15
2023-05-22T15:12:38.175Z,2.05
2023-05-22T15:15:04.469Z,2.15
2023-05-22T15:17:30.549Z,1.67
2023-05-22T15:19:56.523Z,1.75
2023-05-22T15:22:22.564Z,2.10
2023-05-22T15:25:01.977Z,1.77
2023-05-22T15:27:28.085Z,2.15
2023-05-22T15:29:54.107Z,2.88
2023-05-22T15:32:20.231Z,2.38
2023-05-22T15:34:46.105Z,1.98
2023-05-22T15:37:13.607Z,2.03
2023-05-22T15:39:39.653Z,1.95
2023-05-22T15:42:06.772Z,2.30
2023-05-22T15:44:33.165Z,2.00
2023-05-22T15:46:59.213Z,2.58
2023-05-22T15:49:26.059Z,2.35
2023-05-22T15:51:52.941Z,1.83
2023-05-22T15:54:19.095Z,1.98
2023-05-22T15:56:44.939Z,1.90
2023-05-22T15:59:10.855Z,2.22
2023-05-22T16:01:36.940Z,2.05
2023-05-22T16:04:03.071Z,3.03
2023-05-22T16:06:29.611Z,2.25
2023-05-22T16:08:55.610Z,3.22
2023-05-22T16:11:22.130Z,2.35
2023-05-22T16:14:22.293Z,2.05
2023-05-22T16:16:48.712Z,2.22
2023-05-22T16:19:14.719Z,1.80
2023-05-22T16:21:40.830Z,2.25
2023-05-22T16:24:06.847Z,1.80
2023-05-22T16:26:32.847Z,2.03
2023-05-22T16:28:58.756Z,1.90
2023-05-22T16:31:24.930Z,1.75
2023-05-22T16:33:52.623Z,1.70
2023-05-22T16:36:20.021Z,2.97
2023-05-22T16:38:45.882Z,1.92
2023-05-22T16:41:11.914Z,2.13
2023-05-22T16:44:31.145Z,2.60
2023-05-22T16:46:58.005Z,2.10
2023-05-22T16:49:24.589Z,2.30
2023-05-22T16:51:50.730Z,2.00
2023-05-22T16:54:16.692Z,2.30
2023-05-22T16:56:42.580Z,2.50
2023-05-22T16:59:09.378Z,1.98
2023-05-22T17:01:35.529Z,2.03
2023-05-22T17:04:01.456Z,2.40
2023-05-22T17:06:28.780Z,1.95
2023-05-22T17:08:55.507Z,2.60
2023-05-22T17:11:23.376Z,2.33
2023-05-22T17:14:04.660Z,2.20
2023-05-22T17:16:31.090Z,2.10
2023-05-22T17:18:57.228Z,2.38
2023-05-22T17:21:23.787Z,2.50
2023-05-22T17:23:50.018Z,2.38
2023-05-22T17:26:16.048Z,2.15
2023-05-22T17:28:42.059Z,2.42
2023-05-22T17:31:08.103Z,2.38
2023-05-22T17:33:34.124Z,1.90
2023-05-22T17:36:00.332Z,2.45
2023-05-22T17:38:26.110Z,2.60
2023-05-22T17:40:52.252Z,2.53
2023-05-22T17:43:20.977Z,2.03
2023-05-22T17:45:50.408Z,2.25
2023-05-22T17:48:22.783Z,2.37
2023-05-22T17:50:49.408Z,2.30
2023-05-22T17:53:19.215Z,2.45
2023-05-22T17:55:46.053Z,1.95
2023-05-22T17:58:12.454Z,1.77
2023-05-22T18:00:38.474Z,2.20
2023-05-22T18:03:05.353Z,2.45
2023-05-22T18:05:31.429Z,2.55
2023-05-22T18:07:57.338Z,2.20
2023-05-22T18:10:24.734Z,2.22
2023-05-22T18:12:50.834Z,2.00
2023-05-22T18:15:16.875Z,2.42
2023-05-22T18:17:42.798Z,2.13
2023-05-22T18:20:11.249Z,2.67
2023-05-22T18:22:38.546Z,2.67
2023-05-22T18:25:05.913Z,2.58
2023-05-22T18:27:35.145Z,2.97
2023-05-22T18:30:01.749Z,2.78
2023-05-22T18:32:29.331Z,2.40
2023-05-22T18:34:55.231Z,2.50
2023-05-22T18:37:21.249Z,2.67
2023-05-22T18:39:47.456Z,2.03
2023-05-22T18:45:13.850Z,2.92
2023-05-22T18:47:39.840Z,2.63
2023-05-22T18:50:06.225Z,2.97
2023-05-22T18:52:32.117Z,2.88
2023-05-22T18:54:58.048Z,3.03
2023-05-22T18:57:24.582Z,2.55
2023-05-22T18:59:50.689Z,2.80
2023-05-22T19:02:20.620Z,2.38
2023-05-22T19:04:47.031Z,2.38
2023-05-22T19:07:12.961Z,3.00
2023-05-22T19:09:39.783Z,2.05
2023-05-22T19:12:05.733Z,4.10
2023-05-22T19:14:31.597Z,2.60
2023-05-22T19:17:00.472Z,2.33
2023-05-22T19:19:26.490Z,2.70
2023-05-22T19:21:52.852Z,2.67
2023-05-22T19:24:18.860Z,2.58
2023-05-22T19:26:44.745Z,2.75
2023-05-22T19:29:10.795Z,2.75
2023-05-22T19:31:37.025Z,2.65
2023-05-22T19:34:03.818Z,2.85
2023-05-22T19:36:30.821Z,2.92
2023-05-22T19:38:56.651Z,2.85
2023-05-22T19:41:22.683Z,2.72
2023-05-22T19:43:54.882Z,2.53
2023-05-22T19:46:20.895Z,2.90
2023-05-22T19:48:46.859Z,2.30
2023-05-22T19:51:12.678Z,3.00
2023-05-22T19:53:38.585Z,4.05
2023-05-22T19:56:04.429Z,3.20
2023-05-22T19:58:30.360Z,3.75
2023-05-22T20:00:56.266Z,2.67
2023-05-22T20:03:22.874Z,2.97
2023-05-22T20:05:50.570Z,2.75
2023-05-22T20:08:16.909Z,3.55
2023-05-22T20:10:42.874Z,2.95
2023-05-22T20:13:14.790Z,2.80
2023-05-22T20:15:40.895Z,3.50
2023-05-22T20:18:07.834Z,3.38
2023-05-22T20:20:33.775Z,3.72
2023-05-22T20:23:00.540Z,3.63
2023-05-22T20:25:26.414Z,3.45
2023-05-22T20:27:52.203Z,2.92
2023-05-22T20:30:18.510Z,3.67
2023-05-22T20:32:45.865Z,4.25
2023-05-22T20:35:12.517Z,3.72
2023-05-22T20:37:40.350Z,3.70
2023-05-22T20:40:06.925Z,4.30
2023-05-22T20:42:32.761Z,3.33
2023-05-22T20:44:59.249Z,3.70
2023-05-22T20:47:25.182Z,3.55
2023-05-22T20:49:51.117Z,3.85
2023-05-22T20:52:17.020Z,3.38
2023-05-22T20:54:42.884Z,2.58
2023-05-22T20:57:08.910Z,3.67
2023-05-22T20:59:36.908Z,4.18
2023-05-22T21:02:03.083Z,3.17
2023-05-22T21:04:29.010Z,3.90
2023-05-22T21:06:55.142Z,3.75
2023-05-22T21:09:21.192Z,3.83
2023-05-22T21:11:46.978Z,3.67
2023-05-22T21:14:13.220Z,3.67
2023-05-22T21:16:39.715Z,3.28
2023-05-22T21:19:06.656Z,3.38
2023-05-22T21:21:33.341Z,2.97
2023-05-22T21:23:59.134Z,3.53
2023-05-22T21:26:25.403Z,3.40
2023-05-22T21:28:51.866Z,3.95
2023-05-22T21:31:17.653Z,3.42
2023-05-22T21:33:43.510Z,3.10
2023-05-22T21:36:09.275Z,4.32
2023-05-22T21:38:35.032Z,3.08
2023-05-22T21:41:00.828Z,3.13
2023-05-22T21:43:26.617Z,2.88
2023-05-22T21:45:52.412Z,3.08
2023-05-22T21:48:18.232Z,3.72
2023-05-22T21:50:44.010Z,3.95
2023-05-22T21:53:09.825Z,3.67
2023-05-22T21:55:35.691Z,3.55
2023-05-22T21:58:01.533Z,3.55
2023-05-22T22:00:28.859Z,3.60
2023-05-22T22:02:56.528Z,3.72
2023-05-22T22:05:23.772Z,3.45
2023-05-22T22:07:49.548Z,3.10
2023-05-22T22:10:15.350Z,3.05
2023-05-22T22:12:41.183Z,3.90
2023-05-22T22:15:07.314Z,3.05
2023-05-22T22:17:34.085Z,3.63
2023-05-22T22:20:00.238Z,3.08
2023-05-22T22:22:26.064Z,3.45
2023-05-22T22:24:51.904Z,3.60
2023-05-22T22:27:19.175Z,3.40
2023-05-22T22:29:45.034Z,3.20
2023-05-22T22:32:11.650Z,3.83
2023-05-22T22:34:37.704Z,3.47
2023-05-22T22:37:03.721Z,3.45
2023-05-22T22:39:29.573Z,3.38
2023-05-22T22:41:55.412Z,3.28
2023-05-22T22:44:21.176Z,3.72
2023-05-22T22:46:46.943Z,3.38
2023-05-22T22:49:13.506Z,3.80
2023-05-22T22:51:39.278Z,3.08
2023-05-22T22:54:05.094Z,3.78
2023-05-22T22:56:30.928Z,3.45
2023-05-22T22:58:56.727Z,3.35
2023-05-22T23:01:22.728Z,3.45
2023-05-22T23:03:48.540Z,3.28
2023-05-22T23:06:14.309Z,3.70
2023-05-22T23:08:40.177Z,3.10
2023-05-22T23:11:06.056Z,3.67
2023-05-22T23:15:57.716Z,3.25
2023-05-22T23:18:23.731Z,3.15
2023-05-22T23:20:50.595Z,3.55
2023-05-22T23:23:16.384Z,3.47
2023-05-22T23:25:42.354Z,3.50
2023-05-22T23:28:08.290Z,3.65
2023-05-22T23:30:34.053Z,3.88
2023-05-22T23:33:01.804Z,3.90
2023-05-22T23:35:27.714Z,2.92
2023-05-22T23:37:53.512Z,4.38
2023-05-22T23:40:19.306Z,3.78
2023-05-22T23:42:45.099Z,3.90
2023-05-22T23:45:11.011Z,4.05
2023-05-22T23:47:36.763Z,3.15
2023-05-22T23:50:02.591Z,4.05
2023-05-22T23:52:28.375Z,3.40
2023-05-22T23:54:54.163Z,4.32
2023-05-22T23:57:20.068Z,3.70
2023-05-22T23:59:45.834Z,3.78
